Airfield :
LOGIN :

Register | Disclaimer

   EN    FR    IT 

 










Legend :    VFR   Marginal VFR   IFR   Intensive IFR   Very Intensive IFR
Visi :
Ceiling :
>= 8 km
>= 3000ft
5 to 8 km
1000 to 3000 ft
1500m to 5 km
500 to 1000 ft
800 to 1500m
200 to 500 ft
< 800m
< 200 ft
Symbols :   Thunderstorms  Fog  Heavy snow  Heavy precipitations  Wind > 20 kt
SIGMETs :     Misc.  Thunderstorms  Icing  Turbulence  Mountain Waves  Volcanic Ashes






- Airport Elevation : 270 ft
- IATA code : OXF


EGTK - Oxford (Kidlington)

CURRENT METAR :
  • 141120Z 24015KT 9999 VCSH FEW025 SCT032CB 16/10 Q1000

EXPIRED METARs :
  • 141020Z 23015KT 9999 VCSH SCT029 BKN038CB 16/09 Q1000
  • 140950Z 22014KT 9999 VCSH SCT031 BKN038 15/10 Q1000
  • 140920Z 24012KT 9999 VCSH FEW013 BKN025 16/11 Q1000
  • 140850Z 21011KT 9999 VCSH FEW022 BKN025 15/11 Q1000
  • 140820Z 23012KT 9999 -SHRA SCT021 BKN029CB 15/11 Q1000
  • 140750Z 21011KT 9999 SCT015 BKN019 14/11 Q1000
  • 140720Z 22011KT 9999 VCSH SCT013 BKN016 13/11 Q1000
  • 140650Z 21011KT 9999 SCT013 BKN036 13/11 Q1000
  • 140620Z 22012KT 9999 SCT013 BKN041 13/11 Q1000

TAF TAF EGTK
Valid from the 14 at 09:00 until the 14 at 18:00 UTC


140759Z 1409/1418 20010KT 9999 FEW010 SCT030
TEMPO 1409/1418 21015G25KT 6000 SHRA
PROB30
TEMPO 1412/1418 3000 +SHRA BKN014 BKN020CB



MET'MAP, your aeronautical weather chart ! - Copyright ORBIFLY December 2007 - Disclaimer

ORBIFLY MET'MAP TEAM :

Programming & Development : Alexandra Zaïnal
Original concept : Baudouin d'Aumeries
Technical & hardware support : Manuel Goepfert
Assistance : Marc-Olivier Méhu




SOURCES & CREDITS :

   NOAA